Time;durP1;ratioP1;P1;durP2;ratioP2;P2;SDS_P1;SDS_P2;PMS_P1;PMS_P2;Temp;Humidity;BMP_temperature;BMP_pressure;BME280_temperature;BME280_humidity;BME280_pressure;Samples;Min_cycle;Max_cycle;Signal;HPM_P1;HPM_P2
2022/04/18 00:04:50;;;;;;;16.08;9.50;;;7.40;90.10;;;;;;5045450;28;20049;-85
2022/04/18 00:07:16;;;;;;;13.63;9.40;;;7.40;89.30;;;;;;5024139;28;20033;-84
2022/04/18 00:09:42;;;;;;;14.02;9.90;;;7.50;90.00;;;;;;5032894;28;20048;-84
2022/04/18 00:12:08;;;;;;;;;;;7.30;89.40;;;;;;5030387;28;20038;-84
2022/04/18 00:14:34;;;;;;;14.50;9.90;;;7.20;89.90;;;;;;5032766;28;20286;-84
2022/04/18 00:16:59;;;;;;;13.90;9.30;;;7.50;89.80;;;;;;5039097;28;20071;-89
2022/04/18 00:19:25;;;;;;;14.63;9.82;;;7.00;90.10;;;;;;5025132;28;20087;-89
2022/04/18 00:21:51;;;;;;;15.80;10.45;;;6.90;90.50;;;;;;5051924;28;20120;-89
2022/04/18 00:24:19;;;;;;;15.88;9.35;;;7.30;90.90;;;;;;5015102;28;20492;-89
2022/04/18 00:26:45;;;;;;;17.80;10.38;;;6.70;90.80;;;;;;5017775;28;20399;-89
2022/04/18 00:29:11;;;;;;;14.10;10.02;;;7.10;90.90;;;;;;5022796;28;20450;-89
2022/04/18 00:31:38;;;;;;;15.70;10.00;;;6.70;91.10;;;;;;5034019;28;20037;-89
2022/04/18 00:34:04;;;;;;;13.57;9.65;;;6.90;91.00;;;;;;5023638;28;20037;-89
2022/04/18 00:36:30;;;;;;;17.20;10.23;;;6.50;91.40;;;;;;5048041;28;20041;-89
2022/04/18 00:38:56;;;;;;;17.58;10.13;;;6.10;91.30;;;;;;5017623;28;20417;-89
2022/04/18 00:41:21;;;;;;;;;;;6.50;91.60;;;;;;5048496;28;20041;-89
2022/04/18 00:43:49;;;;;;;14.50;9.43;;;6.50;91.90;;;;;;5034051;28;19924;-90
2022/04/18 00:46:17;;;;;;;18.13;10.63;;;6.40;91.60;;;;;;5035698;28;20140;-89
2022/04/18 00:48:43;;;;;;;18.42;10.50;;;6.30;91.80;;;;;;5027205;28;20045;-89
2022/04/18 00:51:14;;;;;;;17.30;10.80;;;6.60;92.40;;;;;;5015482;28;20037;-89
2022/04/18 00:53:41;;;;;;;17.73;10.57;;;6.40;92.20;;;;;;5003849;28;20034;-89
2022/04/18 00:56:11;;;;;;;15.02;10.77;;;7.60;92.30;;;;;;5050085;28;20471;-89
2022/04/18 00:58:37;;;;;;;16.17;10.55;;;6.40;92.10;;;;;;5016619;28;20049;-89
2022/04/18 01:01:03;;;;;;;15.00;10.63;;;6.40;92.30;;;;;;5028438;28;20539;-89
2022/04/18 01:03:30;;;;;;;17.08;11.00;;;6.90;92.40;;;;;;5033071;28;20061;-89
2022/04/18 01:06:05;;;;;;;17.05;10.85;;;6.40;92.40;;;;;;5033595;28;20053;-90
2022/04/18 01:08:34;;;;;;;17.35;10.65;;;6.70;92.70;;;;;;5049108;28;20103;-89
2022/04/18 01:11:01;;;;;;;18.38;10.52;;;6.40;92.30;;;;;;5020612;28;20034;-89
2022/04/18 01:13:29;;;;;;;14.45;10.50;;;6.40;92.70;;;;;;5013685;28;20037;-89
2022/04/18 01:15:57;;;;;;;17.05;10.82;;;6.40;92.40;;;;;;5015809;28;20068;-90
2022/04/18 01:18:23;;;;;;;21.05;11.50;;;6.40;92.40;;;;;;5042078;28;20068;-90
2022/04/18 01:20:49;;;;;;;16.42;10.55;;;6.50;92.80;;;;;;5032434;28;20371;-89
2022/04/18 01:23:17;;;;;;;17.88;10.68;;;6.60;92.00;;;;;;5036419;28;20071;-84
2022/04/18 01:31:11;;;;;;;17.17;11.00;;;7.00;91.80;;;;;;5015962;28;20506;-84
2022/04/18 01:33:38;;;;;;;17.70;11.52;;;6.70;91.60;;;;;;5053229;28;20037;-85
2022/04/18 01:36:04;;;;;;;17.33;11.02;;;6.70;91.50;;;;;;5019397;28;20033;-85
2022/04/18 01:38:30;;;;;;;16.38;10.48;;;6.70;91.50;;;;;;5016067;28;20376;-84
2022/04/18 01:40:56;;;;;;;19.52;11.43;;;7.10;91.40;;;;;;5021134;28;20052;-85
2022/04/18 01:43:21;;;;;;;19.40;11.15;;;7.70;91.40;;;;;;5053377;28;20044;-85
2022/04/18 01:45:47;;;;;;;20.23;12.02;;;6.70;91.20;;;;;;5004032;28;20042;-85
2022/04/18 01:48:13;;;;;;;18.25;12.02;;;6.80;91.00;;;;;;5049290;28;20037;-85
2022/04/18 01:50:39;;;;;;;15.43;10.80;;;7.00;91.20;;;;;;5033549;28;20038;-85
2022/04/18 01:53:06;;;;;;;18.67;11.48;;;7.20;91.10;;;;;;5030249;28;20037;-85
2022/04/18 01:55:31;;;;;;;17.52;11.65;;;6.80;91.00;;;;;;4984105;28;20045;-89
2022/04/18 01:57:57;;;;;;;20.60;12.13;;;6.80;91.20;;;;;;5018373;28;20096;-89
2022/04/18 02:00:23;;;;;;;18.77;12.18;;;6.80;91.20;;;;;;5049410;28;20041;-89
2022/04/18 02:02:49;;;;;;;19.08;12.10;;;7.20;91.20;;;;;;5003715;28;20557;-89
2022/04/18 02:05:14;;;;;;;18.42;12.25;;;6.80;91.20;;;;;;5024428;28;20068;-89
2022/04/18 02:07:40;;;;;;;20.58;12.75;;;7.40;91.60;;;;;;5013548;28;20079;-90
2022/04/18 02:10:06;;;;;;;20.98;12.07;;;7.20;91.40;;;;;;5026994;28;20121;-90
2022/04/18 02:12:33;;;;;;;19.75;11.85;;;6.80;91.50;;;;;;5008133;28;20041;-85
2022/04/18 02:14:59;;;;;;;22.75;12.65;;;8.10;91.90;;;;;;5029767;28;20430;-85
2022/04/18 02:17:25;;;;;;;20.42;12.23;;;6.70;91.80;;;;;;5030494;28;20502;-85
2022/04/18 02:19:50;;;;;;;19.08;12.57;;;7.10;91.90;;;;;;5038655;28;20111;-85
2022/04/18 02:22:16;;;;;;;20.15;12.88;;;7.60;92.40;;;;;;5029014;28;20038;-85
2022/04/18 02:24:42;;;;;;;20.17;12.32;;;6.60;92.20;;;;;;5012831;28;20514;-85
2022/04/18 02:27:09;;;;;;;20.20;12.55;;;6.60;92.40;;;;;;4998190;28;20452;-85
2022/04/18 02:29:35;;;;;;;22.08;12.43;;;6.50;92.50;;;;;;5032290;28;20057;-87
2022/04/18 02:34:45;;;;;;;19.40;12.48;;;7.10;93.00;;;;;;5032290;28;20049;-88
2022/04/18 02:37:11;;;;;;;19.90;12.23;;;6.40;92.80;;;;;;5035872;28;20044;-87
2022/04/18 02:39:37;;;;;;;19.75;12.05;;;6.30;92.80;;;;;;5032868;28;20443;-88
2022/04/18 02:42:03;;;;;;;20.25;11.60;;;6.30;93.00;;;;;;5013247;28;20056;-87
2022/04/18 02:44:29;;;;;;;18.83;11.35;;;6.20;93.30;;;;;;5032414;28;20404;-87
2022/04/18 02:46:55;;;;;;;21.50;12.60;;;6.20;93.70;;;;;;4999340;28;20056;-84
2022/04/18 02:49:21;;;;;;;17.05;11.20;;;6.30;93.70;;;;;;5022567;28;20403;-84
2022/04/18 02:51:46;;;;;;;;;;;6.10;93.50;;;;;;5049246;28;20038;-84
2022/04/18 02:54:12;;;;;;;18.58;11.85;;;6.20;93.70;;;;;;5046060;28;20343;-84
2022/04/18 02:56:38;;;;;;;20.35;11.82;;;6.90;93.50;;;;;;5031423;28;20045;-84
2022/04/18 02:59:03;;;;;;;17.52;12.13;;;6.20;93.60;;;;;;5017470;28;20087;-84
2022/04/18 03:01:29;;;;;;;18.35;11.93;;;6.20;93.30;;;;;;5027671;28;20136;-84
2022/04/18 03:03:55;;;;;;;20.20;12.68;;;6.50;93.50;;;;;;5022683;28;20050;-85
2022/04/18 03:06:21;;;;;;;16.30;11.52;;;6.20;93.60;;;;;;5020880;28;20041;-84
2022/04/18 03:08:46;;;;;;;;;;;7.30;94.00;;;;;;5032047;28;20045;-85
2022/04/18 03:11:12;;;;;;;20.05;12.45;;;6.20;93.80;;;;;;5035704;28;19917;-85
2022/04/18 03:13:44;;;;;;;18.33;11.93;;;6.20;93.50;;;;;;5025948;28;20049;-85
2022/04/18 03:16:11;;;;;;;17.65;11.52;;;6.70;93.90;;;;;;5047913;28;20049;-85
2022/04/18 03:18:37;;;;;;;19.13;12.00;;;6.10;93.70;;;;;;5019499;28;20041;-89
2022/04/18 03:21:03;;;;;;;19.42;12.00;;;6.60;94.00;;;;;;5032825;28;20049;-89
2022/04/18 03:23:29;;;;;;;18.52;11.75;;;6.10;94.00;;;;;;5038544;28;20494;-89
2022/04/18 03:25:57;;;;;;;19.85;11.77;;;6.00;94.00;;;;;;5031934;28;20038;-90
2022/04/18 03:28:26;;;;;;;19.42;12.05;;;6.00;94.00;;;;;;5020474;28;20049;-89
2022/04/18 03:30:54;;;;;;;17.75;11.70;;;6.40;94.60;;;;;;5031034;28;20038;-89
2022/04/18 03:33:20;;;;;;;18.05;11.90;;;5.90;94.50;;;;;;5021634;28;20038;-89
2022/04/18 03:41:15;;;;;;;19.30;12.20;;;6.40;94.60;;;;;;5046211;28;20136;-85
2022/04/18 03:43:42;;;;;;;17.55;11.52;;;6.00;94.80;;;;;;5022904;28;20077;-85
2022/04/18 03:46:07;;;;;;;17.52;11.70;;;6.00;94.80;;;;;;5019569;28;20041;-85
2022/04/18 03:48:33;;;;;;;18.48;11.65;;;5.90;94.90;;;;;;5048675;28;20112;-85
2022/04/18 03:50:59;;;;;;;18.42;12.18;;;5.80;95.30;;;;;;5041409;28;20045;-85
2022/04/18 03:53:25;;;;;;;19.30;12.23;;;5.60;95.30;;;;;;5027494;28;20041;-85
2022/04/18 03:55:50;;;;;;;;;;;5.60;95.30;;;;;;5035565;28;20060;-85
2022/04/18 03:58:16;;;;;;;19.07;12.10;;;6.20;95.60;;;;;;5044620;28;20311;-85
2022/04/18 04:00:42;;;;;;;;;;;6.50;95.40;;;;;;5024620;28;20041;-85
2022/04/18 04:03:08;;;;;;;19.10;11.85;;;5.60;95.70;;;;;;5030807;28;19927;-85
2022/04/18 04:05:35;;;;;;;19.20;11.38;;;5.50;95.40;;;;;;5018545;28;20480;-85
2022/04/18 04:08:00;;;;;;;19.52;12.02;;;6.80;96.10;;;;;;5017917;28;20046;-85
2022/04/18 04:10:26;;;;;;;18.23;11.75;;;4.90;95.60;;;;;;5031858;28;20064;-89
2022/04/18 04:12:52;;;;;;;;;;;5.50;96.10;;;;;;4999259;28;20038;-89
2022/04/18 04:15:17;;;;;;;21.03;12.30;;;5.40;96.40;;;;;;5020754;28;19976;-89
2022/04/18 04:17:43;;;;;;;18.75;11.85;;;5.90;96.60;;;;;;5031867;28;20037;-89
2022/04/18 04:20:09;;;;;;;20.85;12.38;;;5.40;96.60;;;;;;5045226;28;20045;-89
2022/04/18 04:22:35;;;;;;;18.77;12.00;;;4.70;96.60;;;;;;5020743;28;20052;-89
2022/04/18 04:25:01;;;;;;;19.33;12.85;;;5.30;96.60;;;;;;5047131;28;20121;-88
2022/04/18 04:27:26;;;;;;;18.92;11.85;;;5.30;97.00;;;;;;5033011;28;20041;-88
2022/04/18 04:29:52;;;;;;;17.88;12.13;;;5.40;97.10;;;;;;5051175;28;20034;-88
2022/04/18 04:32:18;;;;;;;20.48;12.18;;;5.80;97.20;;;;;;5040694;28;20045;-87
2022/04/18 04:34:44;;;;;;;18.38;12.32;;;5.60;97.00;;;;;;5018219;28;20068;-88
2022/04/18 04:37:09;;;;;;;20.98;12.52;;;5.50;96.70;;;;;;5033697;28;20038;-88
2022/04/18 04:39:35;;;;;;;20.13;12.80;;;6.20;97.20;;;;;;5043610;28;20044;-89
2022/04/18 04:42:01;;;;;;;18.75;12.43;;;5.50;96.90;;;;;;5019366;28;20041;-86
2022/04/18 04:44:26;;;;;;;;;;;6.50;97.00;;;;;;5030704;28;20041;-85
2022/04/18 04:46:52;;;;;;;16.48;11.98;;;6.50;97.10;;;;;;5043666;28;19917;-85
2022/04/18 04:49:18;;;;;;;19.63;12.45;;;5.60;96.70;;;;;;5023318;28;20041;-85
2022/04/18 04:51:43;;;;;;;20.55;11.85;;;5.60;96.60;;;;;;5042669;28;20502;-85
2022/04/18 04:54:09;;;;;;;18.92;12.15;;;5.60;96.60;;;;;;5047176;28;20034;-85
2022/04/18 04:56:35;;;;;;;17.33;12.02;;;5.60;96.70;;;;;;5007882;28;20099;-86
2022/04/18 04:59:04;;;;;;;18.08;12.75;;;6.60;96.90;;;;;;5014775;28;20045;-89
2022/04/18 05:01:29;;;;;;;23.08;12.07;;;6.30;96.70;;;;;;4997441;28;20038;-88
2022/04/18 05:03:55;;;;;;;20.02;12.07;;;6.10;97.00;;;;;;5047369;28;20110;-89
2022/04/18 05:06:21;;;;;;;18.60;11.73;;;5.70;96.80;;;;;;5042157;28;20045;-89
2022/04/18 05:08:46;;;;;;;;;;;5.80;96.80;;;;;;5030345;28;20072;-90
2022/04/18 05:11:12;;;;;;;22.25;12.95;;;6.50;97.10;;;;;;4987477;28;20437;-89
2022/04/18 05:13:38;;;;;;;18.30;12.77;;;6.00;96.80;;;;;;5033420;28;20040;-89
2022/04/18 05:16:04;;;;;;;18.65;12.23;;;6.00;96.80;;;;;;5030701;28;20040;-89
2022/04/18 05:18:30;;;;;;;18.60;12.15;;;5.90;96.90;;;;;;5017098;28;20120;-89
2022/04/18 05:20:57;;;;;;;18.77;12.02;;;5.90;96.70;;;;;;5041808;28;20519;-89
2022/04/18 05:23:22;;;;;;;17.90;12.15;;;5.90;96.80;;;;;;5049017;28;20051;-89
2022/04/18 05:25:48;;;;;;;18.52;12.25;;;6.00;96.80;;;;;;5028552;28;20045;-89
2022/04/18 05:28:14;;;;;;;17.70;12.52;;;6.90;97.10;;;;;;5019707;28;20034;-89
2022/04/18 05:30:41;;;;;;;19.05;12.45;;;6.10;96.80;;;;;;5045008;28;20471;-89
2022/04/18 05:33:07;;;;;;;17.77;11.98;;;6.30;96.90;;;;;;5024299;28;20029;-84
2022/04/18 05:35:33;;;;;;;17.83;11.95;;;6.90;97.10;;;;;;5034734;28;20434;-84
2022/04/18 05:37:59;;;;;;;21.92;12.77;;;6.90;97.20;;;;;;5023328;28;20071;-84
2022/04/18 05:40:25;;;;;;;18.40;11.95;;;6.30;96.60;;;;;;5032633;28;20045;-84
2022/04/18 05:42:53;;;;;;;19.88;13.02;;;7.00;96.50;;;;;;5041449;28;20045;-84
2022/04/18 05:45:19;;;;;;;19.83;12.68;;;7.50;96.60;;;;;;5006372;28;20052;-84
2022/04/18 05:47:45;;;;;;;20.27;12.60;;;7.00;96.50;;;;;;5045816;28;20128;-84
2022/04/18 05:50:12;;;;;;;17.30;11.95;;;6.70;96.00;;;;;;5032676;28;20073;-87
2022/04/18 05:52:38;;;;;;;18.98;12.48;;;6.80;95.80;;;;;;5032960;28;20045;-87
2022/04/18 05:55:04;;;;;;;17.55;12.35;;;7.30;95.90;;;;;;5012886;28;20310;-87
2022/04/18 05:57:30;;;;;;;18.88;12.55;;;7.00;95.40;;;;;;5044251;28;20061;-87
2022/04/18 05:59:55;;;;;;;18.13;12.25;;;7.10;95.30;;;;;;5041607;28;20801;-87
2022/04/18 06:02:21;;;;;;;21.00;12.57;;;7.20;95.10;;;;;;5019792;28;20037;-87
2022/04/18 06:04:47;;;;;;;17.52;11.98;;;7.40;94.50;;;;;;5023895;28;20054;-87
2022/04/18 06:07:13;;;;;;;20.42;11.73;;;7.60;94.60;;;;;;4999970;28;20034;-88
2022/04/18 06:09:38;;;;;;;18.48;11.93;;;7.80;94.00;;;;;;5034998;28;20048;-87
2022/04/18 06:12:05;;;;;;;16.48;11.98;;;8.00;93.30;;;;;;5024795;28;20493;-88
2022/04/18 06:14:31;;;;;;;19.85;12.32;;;8.20;93.60;;;;;;5046474;28;20079;-87
2022/04/18 06:16:57;;;;;;;19.88;12.88;;;8.30;93.10;;;;;;5007669;28;20052;-88
2022/04/18 06:19:22;;;;;;;17.20;12.32;;;8.40;92.80;;;;;;4964216;28;20046;-88
2022/04/18 06:21:48;;;;;;;17.95;12.52;;;8.70;92.70;;;;;;5019874;28;20037;-85
2022/04/18 06:24:14;;;;;;;16.88;11.82;;;9.00;91.50;;;;;;5036541;28;20045;-85
2022/04/18 06:26:40;;;;;;;17.10;12.52;;;9.80;91.90;;;;;;5034624;28;20037;-85
2022/04/18 06:29:06;;;;;;;19.10;12.45;;;10.20;90.40;;;;;;5026887;28;20484;-86
2022/04/18 06:31:31;;;;;;;17.23;12.73;;;10.60;89.30;;;;;;5042358;28;20124;-86
2022/04/18 06:33:57;;;;;;;19.90;12.48;;;11.20;88.40;;;;;;5012627;28;20076;-85
2022/04/18 06:36:23;;;;;;;17.10;12.10;;;11.50;85.50;;;;;;4999550;28;20034;-85
2022/04/18 06:38:48;;;;;;;17.83;11.50;;;11.90;86.10;;;;;;5046170;28;20450;-85
2022/04/18 06:41:14;;;;;;;15.52;11.65;;;12.20;83.00;;;;;;5032068;28;20416;-85
2022/04/18 06:43:40;;;;;;;16.80;12.25;;;12.50;83.30;;;;;;5033422;28;20045;-85
2022/04/18 06:46:05;;;;;;;16.23;11.50;;;12.70;80.50;;;;;;5034351;28;20045;-85
2022/04/18 06:48:31;;;;;;;16.38;11.98;;;13.00;80.50;;;;;;5037768;28;20419;-85
2022/04/18 06:50:57;;;;;;;15.88;11.40;;;13.40;78.20;;;;;;5034946;28;20376;-85
2022/04/18 06:53:22;;;;;;;16.65;11.02;;;13.60;78.10;;;;;;5034641;28;20038;-85
2022/04/18 06:58:32;;;;;;;14.85;11.18;;;14.20;76.50;;;;;;5034868;28;20419;-87
2022/04/18 07:00:58;;;;;;;15.63;10.68;;;14.30;74.90;;;;;;5030424;28;20040;-88
2022/04/18 07:03:26;;;;;;;15.75;10.75;;;14.80;74.30;;;;;;5035147;28;20049;-87
2022/04/18 07:05:51;;;;;;;14.52;11.20;;;14.60;72.60;;;;;;5028750;28;20057;-87
2022/04/18 07:08:17;;;;;;;15.02;11.00;;;15.10;71.90;;;;;;5001744;28;20124;-89
2022/04/18 07:10:43;;;;;;;15.55;10.68;;;15.50;72.80;;;;;;5035871;28;20029;-89
2022/04/18 07:13:08;;;;;;;13.48;10.35;;;15.50;70.50;;;;;;5037703;28;20091;-87
2022/04/18 07:15:34;;;;;;;14.07;10.18;;;15.80;70.00;;;;;;5033159;28;20049;-87
2022/04/18 07:18:01;;;;;;;13.90;9.95;;;16.00;67.70;;;;;;5015213;28;20056;-87
2022/04/18 07:20:28;;;;;;;13.35;10.00;;;16.50;68.20;;;;;;5016667;28;20052;-87
2022/04/18 07:22:54;;;;;;;13.43;10.18;;;16.20;67.80;;;;;;5051676;28;20407;-87
2022/04/18 07:25:21;;;;;;;16.00;10.57;;;16.20;65.90;;;;;;5027652;28;20038;-88
2022/04/18 07:27:47;;;;;;;13.35;9.88;;;16.60;66.30;;;;;;5019714;28;20034;-88
2022/04/18 07:30:13;;;;;;;13.45;10.07;;;16.30;65.10;;;;;;5045977;28;20482;-89
2022/04/18 07:32:43;;;;;;;14.13;9.63;;;15.70;65.20;;;;;;5002083;28;20393;-89
2022/04/18 07:35:10;;;;;;;12.30;9.27;;;16.10;65.80;;;;;;5044521;28;20056;-89
2022/04/18 07:37:36;;;;;;;12.23;9.52;;;16.50;66.00;;;;;;5025391;28;20034;-89
2022/04/18 07:40:02;;;;;;;12.23;9.32;;;17.30;66.90;;;;;;5000470;28;21315;-92
2022/04/18 07:42:28;;;;;;;13.70;9.18;;;18.10;64.60;;;;;;4999588;28;20033;-89
2022/04/18 07:44:54;;;;;;;12.32;9.18;;;18.60;64.80;;;;;;4988660;28;20495;-90
2022/04/18 07:47:20;;;;;;;11.40;9.07;;;18.00;62.30;;;;;;5020480;28;20091;-90
2022/04/18 07:49:45;;;;;;;11.70;8.77;;;17.90;61.40;;;;;;4997568;28;20037;-90
2022/04/18 07:52:12;;;;;;;12.43;8.57;;;18.30;61.40;;;;;;5017357;28;20099;-90
2022/04/18 07:54:38;;;;;;;10.75;8.77;;;18.70;62.90;;;;;;5009599;28;20542;-90
2022/04/18 07:57:05;;;;;;;12.45;8.85;;;19.10;59.90;;;;;;5027694;28;20263;-90
2022/04/18 07:59:31;;;;;;;10.85;8.30;;;19.40;60.20;;;;;;5034406;28;20579;-90
2022/04/18 08:01:57;;;;;;;12.40;8.23;;;19.90;60.80;;;;;;5051590;28;20099;-85
2022/04/18 08:04:23;;;;;;;11.68;8.52;;;20.20;57.60;;;;;;5037381;28;20049;-84
2022/04/18 08:06:48;;;;;;;14.25;8.40;;;20.10;58.90;;;;;;5000519;28;20045;-84
2022/04/18 08:09:14;;;;;;;11.52;7.82;;;20.30;59.20;;;;;;5024727;28;20046;-84
2022/04/18 08:11:40;;;;;;;10.52;8.20;;;20.70;56.60;;;;;;4997079;28;20088;-84
2022/04/18 08:14:06;;;;;;;11.88;8.15;;;21.00;57.30;;;;;;5033513;28;20069;-84
2022/04/18 08:16:32;;;;;;;11.30;7.70;;;21.30;57.50;;;;;;5004857;28;20076;-84
2022/04/18 08:18:58;;;;;;;12.05;8.45;;;21.80;54.60;;;;;;5027339;28;20033;-82
2022/04/18 08:21:23;;;;;;;10.77;8.25;;;21.70;55.00;;;;;;4988851;28;20368;-82
2022/04/18 08:23:51;;;;;;;10.50;7.57;;;20.80;54.50;;;;;;5005339;28;20034;-82
2022/04/18 08:26:19;;;;;;;9.40;7.82;;;21.40;55.20;;;;;;5018567;28;20411;-82
2022/04/18 08:28:45;;;;;;;10.30;7.28;;;21.70;53.30;;;;;;5046691;28;20081;-81
2022/04/18 08:31:11;;;;;;;9.73;7.40;;;21.90;53.20;;;;;;5021839;28;20038;-83
2022/04/18 08:33:37;;;;;;;10.77;7.10;;;22.60;52.80;;;;;;5017237;28;20494;-80
2022/04/18 08:36:03;;;;;;;8.73;7.47;;;23.00;53.90;;;;;;5020507;28;20030;-86
2022/04/18 08:38:29;;;;;;;9.65;7.32;;;23.00;53.30;;;;;;5023775;28;20195;-85
2022/04/18 08:40:57;;;;;;;10.45;7.50;;;23.70;54.20;;;;;;5023303;28;20493;-86
2022/04/18 08:43:23;;;;;;;9.30;7.50;;;24.20;53.60;;;;;;5011827;28;20044;-85
2022/04/18 08:45:49;;;;;;;9.00;7.25;;;24.70;51.60;;;;;;5032120;28;20041;-86
2022/04/18 08:53:47;;;;;;;10.43;7.20;;;24.10;52.50;;;;;;5026107;28;20071;-86
2022/04/18 08:56:13;;;;;;;9.25;7.50;;;22.80;49.50;;;;;;5024727;28;20038;-86
2022/04/18 08:58:40;;;;;;;8.95;7.13;;;23.80;50.80;;;;;;5012797;28;20053;-86
2022/04/18 09:01:07;;;;;;;10.32;7.13;;;24.80;51.20;;;;;;5019931;28;20041;-86
2022/04/18 09:03:34;;;;;;;10.23;6.97;;;25.00;50.10;;;;;;5025530;28;20060;-86
2022/04/18 09:06:09;;;;;;;8.68;6.72;;;24.40;50.20;;;;;;5026255;28;20042;-87
2022/04/18 09:09:03;;;;;;;9.15;7.30;;;25.40;49.40;;;;;;5021351;28;20042;-80
2022/04/18 09:11:40;;;;;;;10.82;7.28;;;26.10;49.40;;;;;;5009754;28;20103;-81
2022/04/18 09:14:15;;;;;;;9.90;7.32;;;25.60;47.50;;;;;;5014109;28;20041;-81
2022/04/18 09:16:41;;;;;;;;;;;25.20;48.50;;;;;;5026958;28;20033;-81
2022/04/18 09:19:12;;;;;;;9.75;7.47;;;24.90;47.80;;;;;;5019746;28;20351;-82
2022/04/18 09:21:59;;;;;;;10.95;6.80;;;24.40;47.50;;;;;;5026128;28;20084;-82
2022/04/18 09:24:31;;;;;;;10.27;6.70;;;24.60;47.60;;;;;;5039400;28;20048;-84
2022/04/18 09:27:24;;;;;;;10.15;7.03;;;24.70;48.00;;;;;;5044055;28;20094;-87
2022/04/18 09:30:09;;;;;;;8.35;6.32;;;25.40;49.60;;;;;;5046121;28;20049;-86
2022/04/18 09:32:35;;;;;;;8.00;5.60;;;26.00;49.30;;;;;;5038316;28;20041;-86
2022/04/18 09:35:03;;;;;;;8.30;6.35;;;26.60;48.80;;;;;;5038905;28;20287;-85
2022/04/18 09:37:31;;;;;;;9.10;6.82;;;27.00;47.60;;;;;;5025176;28;20487;-85
2022/04/18 09:39:57;;;;;;;9.25;6.13;;;26.80;46.50;;;;;;5027312;28;20045;-86
2022/04/18 09:42:25;;;;;;;7.45;6.22;;;26.80;46.30;;;;;;5048408;28;20071;-83
2022/04/18 09:44:51;;;;;;;8.30;6.72;;;26.90;46.40;;;;;;5030423;28;20072;-84
2022/04/18 09:47:23;;;;;;;9.20;6.10;;;27.10;47.20;;;;;;5028528;28;20045;-84
2022/04/18 09:49:49;;;;;;;8.93;6.72;;;27.30;45.80;;;;;;5036461;28;20101;-83
2022/04/18 09:52:17;;;;;;;7.55;5.28;;;26.40;45.40;;;;;;5029416;28;20037;-83
2022/04/18 09:54:55;;;;;;;8.23;5.70;;;26.50;46.10;;;;;;5033474;28;20045;-83
2022/04/18 09:57:23;;;;;;;6.00;4.72;;;25.20;45.70;;;;;;5023692;28;20112;-83
2022/04/18 09:59:51;;;;;;;7.72;5.80;;;25.40;44.60;;;;;;5039336;28;20530;-84
2022/04/18 10:02:17;;;;;;;7.68;5.70;;;25.20;45.20;;;;;;5026931;28;20044;-83
2022/04/18 10:04:44;;;;;;;11.50;5.72;;;26.10;47.00;;;;;;5026876;28;20410;-82
2022/04/18 10:07:10;;;;;;;7.60;4.78;;;26.50;45.60;;;;;;5036540;28;20391;-83
2022/04/18 10:09:39;;;;;;;7.03;5.43;;;27.10;45.20;;;;;;5023639;28;20067;-83
2022/04/18 10:12:09;;;;;;;7.28;4.88;;;27.40;43.80;;;;;;5013446;28;20404;-84
2022/04/18 10:14:38;;;;;;;6.78;4.88;;;28.20;44.80;;;;;;5017955;28;20045;-83
2022/04/18 10:17:07;;;;;;;7.00;4.97;;;28.10;43.80;;;;;;5012020;28;20104;-85
2022/04/18 10:20:07;;;;;;;7.65;4.90;;;28.00;42.90;;;;;;5044467;28;20064;-84
2022/04/18 10:22:49;;;;;;;6.88;4.90;;;27.50;42.40;;;;;;5029742;28;20056;-84
2022/04/18 10:25:15;;;;;;;6.20;4.80;;;27.30;42.30;;;;;;5030854;28;20049;-83
2022/04/18 10:27:59;;;;;;;6.18;4.50;;;27.40;44.60;;;;;;5026285;28;20509;-83
2022/04/18 10:30:25;;;;;;;5.53;4.20;;;28.10;43.20;;;;;;5031314;28;20094;-83
2022/04/18 10:32:52;;;;;;;5.95;4.20;;;27.90;40.90;;;;;;4995793;28;20065;-82
2022/04/18 10:35:22;;;;;;;5.40;4.28;;;27.40;40.60;;;;;;5006979;28;20095;-83
2022/04/18 10:37:53;;;;;;;7.00;4.50;;;27.70;42.00;;;;;;5030180;28;20041;-84
2022/04/18 10:40:19;;;;;;;6.38;4.20;;;27.60;41.10;;;;;;5040761;28;20041;-84
2022/04/18 10:42:45;;;;;;;6.97;4.70;;;26.50;40.90;;;;;;5022369;28;20103;-84
2022/04/18 10:45:19;;;;;;;6.72;4.18;;;27.20;41.60;;;;;;5011050;28;20040;-84
2022/04/18 10:48:13;;;;;;;6.22;4.20;;;27.60;42.10;;;;;;5043223;28;20116;-84
2022/04/18 10:50:43;;;;;;;6.07;4.20;;;28.40;42.00;;;;;;5011581;28;20073;-84
2022/04/18 10:53:26;;;;;;;5.78;3.90;;;28.20;41.20;;;;;;5046340;28;20037;-84
2022/04/18 10:55:52;;;;;;;6.35;4.05;;;27.80;40.30;;;;;;5042593;28;20044;-83
2022/04/18 10:58:40;;;;;;;6.22;4.38;;;28.60;41.10;;;;;;5045806;28;20037;-83
2022/04/18 11:01:08;;;;;;;6.22;4.30;;;27.90;39.90;;;;;;5046208;28;20094;-83
2022/04/18 11:03:57;;;;;;;6.43;3.65;;;27.90;39.80;;;;;;5025033;28;20067;-83
2022/04/18 11:06:22;;;;;;;5.60;3.72;;;28.60;40.10;;;;;;5038142;28;20076;-84
2022/04/18 11:09:08;;;;;;;13.52;3.55;;;27.40;40.10;;;;;;5028034;28;20041;-84
2022/04/18 11:12:05;;;;;;;5.10;3.17;;;27.60;38.50;;;;;;5047407;28;20046;-84
2022/04/18 11:14:51;;;;;;;5.10;3.67;;;28.20;41.50;;;;;;5018967;28;20049;-84
2022/04/18 11:20:17;;;;;;;5.75;4.07;;;28.60;38.20;;;;;;4181799;26;20053;-94
2022/04/18 11:23:03;;;;;;;8.23;4.40;;;27.70;40.80;;;;;;5027606;28;20037;-92
2022/04/18 11:25:48;;;;;;;;;;;27.20;40.20;;;;;;5023643;28;20395;-90
2022/04/18 11:28:15;;;;;;;4.90;3.15;;;27.00;41.30;;;;;;5040301;28;19920;-92
2022/04/18 11:30:41;;;;;;;7.63;3.30;;;26.60;38.40;;;;;;5024973;28;20030;-89
2022/04/18 11:33:07;;;;;;;8.23;3.85;;;27.10;39.50;;;;;;5022173;28;20037;-90
2022/04/18 11:35:34;;;;;;;5.18;3.72;;;27.30;39.90;;;;;;5025515;28;20029;-90
2022/04/18 11:38:07;;;;;;;18.77;4.25;;;27.30;38.70;;;;;;5069393;28;20071;-88
2022/04/18 11:40:36;;;;;;;7.40;3.42;;;27.70;39.20;;;;;;5030373;28;20041;-88
2022/04/18 11:43:16;;;;;;;6.53;3.58;;;27.80;39.50;;;;;;5028331;28;20032;-89
2022/04/18 11:45:43;;;;;;;5.95;3.92;;;28.20;40.00;;;;;;5029766;28;20429;-89
2022/04/18 11:48:13;;;;;;;8.13;3.60;;;27.30;38.20;;;;;;5047702;28;20044;-88
2022/04/18 11:50:43;;;;;;;5.72;3.60;;;27.70;40.90;;;;;;5052982;28;20036;-87
2022/04/18 11:53:11;;;;;;;5.45;3.58;;;28.00;38.00;;;;;;5009748;28;20112;-90
2022/04/18 11:55:46;;;;;;;9.45;4.20;;;27.70;38.40;;;;;;5010684;28;20072;-93
2022/04/18 11:58:18;;;;;;;5.85;3.50;;;27.50;38.70;;;;;;5067233;28;20032;-85
2022/04/18 12:09:15;;;;;;;5.72;3.40;;;26.90;38.00;;;;;;5057841;28;20084;-84
2022/04/18 12:11:41;;;;;;;7.20;3.45;;;27.00;38.40;;;;;;5059594;28;20036;-84
2022/04/18 12:14:07;;;;;;;5.72;3.45;;;27.40;39.10;;;;;;5051331;28;20048;-84
2022/04/18 12:16:34;;;;;;;5.70;3.50;;;27.40;39.20;;;;;;5048969;28;20041;-85
2022/04/18 12:19:00;;;;;;;4.45;3.53;;;27.50;37.90;;;;;;5021674;28;20053;-85
2022/04/18 12:21:26;;;;;;;6.05;3.50;;;27.60;37.50;;;;;;5027885;28;20048;-85
2022/04/18 12:23:57;;;;;;;5.32;3.55;;;27.90;39.00;;;;;;5053440;28;20036;-85
2022/04/18 12:26:31;;;;;;;6.47;3.90;;;27.30;38.40;;;;;;5046763;28;20037;-85
2022/04/18 12:29:08;;;;;;;5.40;3.88;;;27.80;38.10;;;;;;5032417;28;20041;-85
2022/04/18 12:31:38;;;;;;;5.28;3.40;;;27.80;38.90;;;;;;5042748;28;20558;-85
2022/04/18 12:34:04;;;;;;;5.07;3.55;;;27.40;37.00;;;;;;5063736;28;20044;-85
2022/04/18 12:36:33;;;;;;;5.82;3.50;;;26.70;38.20;;;;;;5060042;28;20029;-85
2022/04/18 12:39:00;;;;;;;5.47;3.28;;;26.40;37.90;;;;;;5039964;28;20144;-85
2022/04/18 12:41:28;;;;;;;5.20;3.70;;;26.60;38.60;;;;;;5052153;28;20032;-84
2022/04/18 12:43:54;;;;;;;5.10;3.63;;;25.80;37.80;;;;;;5050657;28;20036;-85
2022/04/18 12:46:25;;;;;;;6.10;3.33;;;25.40;38.20;;;;;;5061333;28;20052;-93
2022/04/18 12:48:52;;;;;;;4.88;3.50;;;25.40;39.50;;;;;;5034122;28;20049;-92
2022/04/18 12:51:28;;;;;;;5.07;3.15;;;25.20;40.20;;;;;;5070108;28;20044;-93
2022/04/18 12:53:55;;;;;;;5.45;3.35;;;;;;;;;;5057056;28;20083;-92
2022/04/18 12:56:26;;;;;;;4.75;3.45;;;24.20;38.70;;;;;;5016383;28;20064;-92
2022/04/18 12:58:55;;;;;;;5.43;3.55;;;24.10;40.30;;;;;;5056945;28;20126;-92
2022/04/18 13:01:25;;;;;;;4.65;3.20;;;23.90;40.20;;;;;;5070294;28;20166;-93
2022/04/18 13:03:52;;;;;;;5.10;3.33;;;24.00;41.20;;;;;;5046559;28;20540;-85
2022/04/18 13:06:28;;;;;;;7.07;3.55;;;24.10;42.10;;;;;;5026195;28;20080;-94
2022/04/18 13:09:02;;;;;;;5.70;3.45;;;24.10;43.50;;;;;;5056070;28;20078;-92
2022/04/18 13:12:01;;;;;;;5.30;3.40;;;24.10;42.10;;;;;;5040320;28;20052;-92
2022/04/18 13:14:27;;;;;;;4.85;3.05;;;23.70;41.00;;;;;;5054452;28;20123;-93
2022/04/18 13:17:05;;;;;;;6.72;3.35;;;23.50;42.80;;;;;;5046101;28;20154;-93
2022/04/18 13:19:31;;;;;;;5.40;2.92;;;23.50;41.00;;;;;;5059122;28;20059;-85
2022/04/18 13:21:56;;;;;;;5.65;2.83;;;23.20;41.50;;;;;;5061230;28;20048;-85
2022/04/18 13:24:22;;;;;;;4.40;3.20;;;22.90;42.60;;;;;;5034811;28;20149;-85